sensor_id;sensor_type;location;lat;lon;timestamp;temperature;humidity
9509;DHT22;4792;50.088;8.122;2022-10-22T00:01:22;14.50;99.90
9509;DHT22;4792;50.088;8.122;2022-10-22T00:03:52;14.40;99.90
9509;DHT22;4792;50.088;8.122;2022-10-22T00:06:21;14.40;99.90
9509;DHT22;4792;50.088;8.122;2022-10-22T00:08:49;14.40;99.90
9509;DHT22;4792;50.088;8.122;2022-10-22T00:11:19;14.40;99.90
9509;DHT22;4792;50.088;8.122;2022-10-22T00:13:48;14.40;99.90
9509;DHT22;4792;50.088;8.122;2022-10-22T00:16:16;14.40;99.90
9509;DHT22;4792;50.088;8.122;2022-10-22T00:18:45;14.40;99.90
9509;DHT22;4792;50.088;8.122;2022-10-22T00:21:15;14.40;99.90
9509;DHT22;4792;50.088;8.122;2022-10-22T00:23:44;14.50;99.90
9509;DHT22;4792;50.088;8.122;2022-10-22T00:26:12;14.50;99.90
9509;DHT22;4792;50.088;8.122;2022-10-22T00:28:44;14.50;99.90
9509;DHT22;4792;50.088;8.122;2022-10-22T00:31:12;14.60;99.90
9509;DHT22;4792;50.088;8.122;2022-10-22T00:33:41;14.60;99.90
9509;DHT22;4792;50.088;8.122;2022-10-22T00:36:14;14.60;99.90
9509;DHT22;4792;50.088;8.122;2022-10-22T00:38:43;14.60;99.90
9509;DHT22;4792;50.088;8.122;2022-10-22T00:41:12;14.60;99.90
9509;DHT22;4792;50.088;8.122;2022-10-22T00:43:57;14.60;99.90
9509;DHT22;4792;50.088;8.122;2022-10-22T00:46:27;14.50;99.90
9509;DHT22;4792;50.088;8.122;2022-10-22T00:48:57;14.40;99.90
9509;DHT22;4792;50.088;8.122;2022-10-22T00:51:31;14.40;99.90
9509;DHT22;4792;50.088;8.122;2022-10-22T00:54:04;14.40;99.90
9509;DHT22;4792;50.088;8.122;2022-10-22T00:56:34;14.40;99.90
9509;DHT22;4792;50.088;8.122;2022-10-22T00:59:03;14.40;99.90
9509;DHT22;4792;50.088;8.122;2022-10-22T01:01:31;14.40;99.90
9509;DHT22;4792;50.088;8.122;2022-10-22T01:04:00;14.40;99.90
9509;DHT22;4792;50.088;8.122;2022-10-22T01:06:32;14.40;99.90
9509;DHT22;4792;50.088;8.122;2022-10-22T01:09:11;14.30;99.90
9509;DHT22;4792;50.088;8.122;2022-10-22T01:11:52;14.50;99.90
9509;DHT22;4792;50.088;8.122;2022-10-22T01:14:30;14.50;99.90
9509;DHT22;4792;50.088;8.122;2022-10-22T01:17:06;14.60;99.90
9509;DHT22;4792;50.088;8.122;2022-10-22T01:19:44;14.40;99.90
9509;DHT22;4792;50.088;8.122;2022-10-22T01:22:19;14.40;99.90
9509;DHT22;4792;50.088;8.122;2022-10-22T01:24:56;14.40;99.90
9509;DHT22;4792;50.088;8.122;2022-10-22T01:30:18;14.30;99.90
9509;DHT22;4792;50.088;8.122;2022-10-22T01:32:50;14.20;99.90
9509;DHT22;4792;50.088;8.122;2022-10-22T01:35:23;14.20;99.90
9509;DHT22;4792;50.088;8.122;2022-10-22T01:37:59;14.20;99.90
9509;DHT22;4792;50.088;8.122;2022-10-22T01:40:29;14.30;99.90
9509;DHT22;4792;50.088;8.122;2022-10-22T01:43:03;14.30;99.90
9509;DHT22;4792;50.088;8.122;2022-10-22T01:45:36;14.20;99.90
9509;DHT22;4792;50.088;8.122;2022-10-22T01:48:15;14.20;99.90
9509;DHT22;4792;50.088;8.122;2022-10-22T01:50:59;14.10;99.90
9509;DHT22;4792;50.088;8.122;2022-10-22T01:53:39;14.10;99.90
9509;DHT22;4792;50.088;8.122;2022-10-22T01:56:23;14.20;99.90
9509;DHT22;4792;50.088;8.122;2022-10-22T01:59:01;14.10;99.90
9509;DHT22;4792;50.088;8.122;2022-10-22T02:01:40;14.10;99.90
9509;DHT22;4792;50.088;8.122;2022-10-22T02:04:16;14.00;99.90
9509;DHT22;4792;50.088;8.122;2022-10-22T02:06:47;14.00;99.90
9509;DHT22;4792;50.088;8.122;2022-10-22T02:09:19;14.00;99.90
9509;DHT22;4792;50.088;8.122;2022-10-22T02:11:48;14.00;99.90
9509;DHT22;4792;50.088;8.122;2022-10-22T02:14:18;13.90;99.90
9509;DHT22;4792;50.088;8.122;2022-10-22T02:16:50;13.90;99.90
9509;DHT22;4792;50.088;8.122;2022-10-22T02:19:22;13.90;99.90
9509;DHT22;4792;50.088;8.122;2022-10-22T02:21:51;13.90;99.90
9509;DHT22;4792;50.088;8.122;2022-10-22T02:24:21;13.90;99.90
9509;DHT22;4792;50.088;8.122;2022-10-22T02:26:57;13.90;99.90
9509;DHT22;4792;50.088;8.122;2022-10-22T02:29:29;13.90;99.90
9509;DHT22;4792;50.088;8.122;2022-10-22T02:32:05;13.90;99.90
9509;DHT22;4792;50.088;8.122;2022-10-22T02:34:35;13.90;99.90
9509;DHT22;4792;50.088;8.122;2022-10-22T02:37:05;13.80;99.90
9509;DHT22;4792;50.088;8.122;2022-10-22T02:39:35;13.80;99.90
9509;DHT22;4792;50.088;8.122;2022-10-22T02:42:03;13.80;99.90
9509;DHT22;4792;50.088;8.122;2022-10-22T02:44:32;13.80;99.90
9509;DHT22;4792;50.088;8.122;2022-10-22T02:47:00;13.80;99.90
9509;DHT22;4792;50.088;8.122;2022-10-22T02:49:30;13.70;99.90
9509;DHT22;4792;50.088;8.122;2022-10-22T02:51:59;13.70;99.90
9509;DHT22;4792;50.088;8.122;2022-10-22T02:54:27;13.70;99.90
9509;DHT22;4792;50.088;8.122;2022-10-22T02:56:55;13.70;99.90
9509;DHT22;4792;50.088;8.122;2022-10-22T02:59:24;13.70;99.90
9509;DHT22;4792;50.088;8.122;2022-10-22T03:01:52;13.70;99.90
9509;DHT22;4792;50.088;8.122;2022-10-22T03:04:20;13.70;99.90
9509;DHT22;4792;50.088;8.122;2022-10-22T03:06:50;13.60;99.90
9509;DHT22;4792;50.088;8.122;2022-10-22T03:09:18;13.60;99.90
9509;DHT22;4792;50.088;8.122;2022-10-22T03:11:50;13.60;99.90
9509;DHT22;4792;50.088;8.122;2022-10-22T03:14:19;13.60;99.90
9509;DHT22;4792;50.088;8.122;2022-10-22T03:16:47;13.60;99.90
9509;DHT22;4792;50.088;8.122;2022-10-22T03:19:15;13.60;99.90
9509;DHT22;4792;50.088;8.122;2022-10-22T03:21:46;13.60;99.90
9509;DHT22;4792;50.088;8.122;2022-10-22T03:24:19;13.60;99.90
9509;DHT22;4792;50.088;8.122;2022-10-22T03:26:49;13.60;99.90
9509;DHT22;4792;50.088;8.122;2022-10-22T03:29:22;13.60;99.90
9509;DHT22;4792;50.088;8.122;2022-10-22T03:31:51;13.60;99.90
9509;DHT22;4792;50.088;8.122;2022-10-22T03:34:19;13.50;99.90
9509;DHT22;4792;50.088;8.122;2022-10-22T03:36:47;13.60;99.90
9509;DHT22;4792;50.088;8.122;2022-10-22T03:39:18;13.60;99.90
9509;DHT22;4792;50.088;8.122;2022-10-22T03:41:47;13.60;99.90
9509;DHT22;4792;50.088;8.122;2022-10-22T03:44:17;13.60;99.90
9509;DHT22;4792;50.088;8.122;2022-10-22T03:46:45;13.70;99.90
9509;DHT22;4792;50.088;8.122;2022-10-22T03:49:14;13.60;99.90
9509;DHT22;4792;50.088;8.122;2022-10-22T03:51:43;13.60;99.90
9509;DHT22;4792;50.088;8.122;2022-10-22T03:54:11;13.60;99.90
9509;DHT22;4792;50.088;8.122;2022-10-22T03:56:40;13.70;99.90
9509;DHT22;4792;50.088;8.122;2022-10-22T03:59:09;13.70;99.90
9509;DHT22;4792;50.088;8.122;2022-10-22T04:01:38;13.70;99.90
9509;DHT22;4792;50.088;8.122;2022-10-22T04:04:07;13.70;99.90
9509;DHT22;4792;50.088;8.122;2022-10-22T04:06:35;13.80;99.90
9509;DHT22;4792;50.088;8.122;2022-10-22T04:09:03;13.80;99.90
9509;DHT22;4792;50.088;8.122;2022-10-22T04:11:31;13.70;99.90
9509;DHT22;4792;50.088;8.122;2022-10-22T04:14:01;13.60;99.90
9509;DHT22;4792;50.088;8.122;2022-10-22T04:16:29;13.60;99.90
9509;DHT22;4792;50.088;8.122;2022-10-22T04:18:58;13.70;99.90
9509;DHT22;4792;50.088;8.122;2022-10-22T04:21:27;13.60;99.90
9509;DHT22;4792;50.088;8.122;2022-10-22T04:23:55;13.60;99.90
9509;DHT22;4792;50.088;8.122;2022-10-22T04:26:23;13.50;99.90
9509;DHT22;4792;50.088;8.122;2022-10-22T04:28:52;13.50;99.90
9509;DHT22;4792;50.088;8.122;2022-10-22T04:31:23;13.50;99.90
9509;DHT22;4792;50.088;8.122;2022-10-22T04:33:52;13.60;99.90
9509;DHT22;4792;50.088;8.122;2022-10-22T04:36:22;13.60;99.90
9509;DHT22;4792;50.088;8.122;2022-10-22T04:38:52;13.70;99.90
9509;DHT22;4792;50.088;8.122;2022-10-22T04:41:22;13.70;99.90
9509;DHT22;4792;50.088;8.122;2022-10-22T04:43:52;13.60;99.90
9509;DHT22;4792;50.088;8.122;2022-10-22T04:46:22;13.60;99.90
9509;DHT22;4792;50.088;8.122;2022-10-22T04:48:50;13.50;99.90
9509;DHT22;4792;50.088;8.122;2022-10-22T04:51:20;13.50;99.90
9509;DHT22;4792;50.088;8.122;2022-10-22T04:53:49;13.50;99.90
9509;DHT22;4792;50.088;8.122;2022-10-22T04:56:20;13.50;99.90
9509;DHT22;4792;50.088;8.122;2022-10-22T04:58:49;13.50;99.90
9509;DHT22;4792;50.088;8.122;2022-10-22T05:01:19;13.50;99.90
9509;DHT22;4792;50.088;8.122;2022-10-22T05:03:51;13.40;99.90
9509;DHT22;4792;50.088;8.122;2022-10-22T05:06:20;13.50;99.90
9509;DHT22;4792;50.088;8.122;2022-10-22T05:08:53;13.40;99.90
9509;DHT22;4792;50.088;8.122;2022-10-22T05:11:24;13.40;99.90
9509;DHT22;4792;50.088;8.122;2022-10-22T05:13:54;13.40;99.90
9509;DHT22;4792;50.088;8.122;2022-10-22T05:16:24;13.40;99.90
9509;DHT22;4792;50.088;8.122;2022-10-22T05:18:54;13.40;99.90
9509;DHT22;4792;50.088;8.122;2022-10-22T05:21:22;13.40;99.90
9509;DHT22;4792;50.088;8.122;2022-10-22T05:23:50;13.40;99.90
9509;DHT22;4792;50.088;8.122;2022-10-22T05:26:19;13.40;99.90
9509;DHT22;4792;50.088;8.122;2022-10-22T05:28:49;13.30;99.90
9509;DHT22;4792;50.088;8.122;2022-10-22T05:31:18;13.30;99.90
9509;DHT22;4792;50.088;8.122;2022-10-22T05:33:46;13.30;99.90
9509;DHT22;4792;50.088;8.122;2022-10-22T05:36:17;13.40;99.90
9509;DHT22;4792;50.088;8.122;2022-10-22T05:38:47;13.40;99.90
9509;DHT22;4792;50.088;8.122;2022-10-22T05:41:16;13.30;99.90
9509;DHT22;4792;50.088;8.122;2022-10-22T05:43:45;13.30;99.90
9509;DHT22;4792;50.088;8.122;2022-10-22T05:46:15;13.30;99.90
9509;DHT22;4792;50.088;8.122;2022-10-22T05:48:49;13.30;99.90
9509;DHT22;4792;50.088;8.122;2022-10-22T05:51:19;13.30;99.90
9509;DHT22;4792;50.088;8.122;2022-10-22T05:53:51;13.30;99.90
9509;DHT22;4792;50.088;8.122;2022-10-22T05:56:20;13.30;99.90
9509;DHT22;4792;50.088;8.122;2022-10-22T05:58:48;13.30;99.90
9509;DHT22;4792;50.088;8.122;2022-10-22T06:01:18;13.40;99.90
9509;DHT22;4792;50.088;8.122;2022-10-22T06:03:47;13.40;99.90
9509;DHT22;4792;50.088;8.122;2022-10-22T06:06:20;13.40;99.90
9509;DHT22;4792;50.088;8.122;2022-10-22T06:08:51;13.40;99.90
9509;DHT22;4792;50.088;8.122;2022-10-22T06:11:21;13.40;99.90
9509;DHT22;4792;50.088;8.122;2022-10-22T06:13:50;13.50;99.90
9509;DHT22;4792;50.088;8.122;2022-10-22T06:16:18;13.50;99.90
9509;DHT22;4792;50.088;8.122;2022-10-22T06:18:47;13.50;99.90
9509;DHT22;4792;50.088;8.122;2022-10-22T06:21:15;13.60;99.90
9509;DHT22;4792;50.088;8.122;2022-10-22T06:23:45;13.50;99.90
9509;DHT22;4792;50.088;8.122;2022-10-22T06:26:13;13.40;99.90
9509;DHT22;4792;50.088;8.122;2022-10-22T06:28:43;13.40;99.90
9509;DHT22;4792;50.088;8.122;2022-10-22T06:31:11;13.30;99.90
9509;DHT22;4792;50.088;8.122;2022-10-22T06:33:40;13.30;99.90
9509;DHT22;4792;50.088;8.122;2022-10-22T06:36:11;13.30;99.90
9509;DHT22;4792;50.088;8.122;2022-10-22T06:38:40;13.20;99.90
9509;DHT22;4792;50.088;8.122;2022-10-22T06:41:11;13.20;99.90
9509;DHT22;4792;50.088;8.122;2022-10-22T06:43:41;13.20;99.90
9509;DHT22;4792;50.088;8.122;2022-10-22T06:46:11;13.20;99.90
9509;DHT22;4792;50.088;8.122;2022-10-22T06:48:49;13.10;99.90
9509;DHT22;4792;50.088;8.122;2022-10-22T06:51:17;13.00;99.90
9509;DHT22;4792;50.088;8.122;2022-10-22T06:53:47;13.00;99.90
9509;DHT22;4792;50.088;8.122;2022-10-22T06:56:18;12.90;99.90
9509;DHT22;4792;50.088;8.122;2022-10-22T06:58:47;12.90;99.90
9509;DHT22;4792;50.088;8.122;2022-10-22T07:01:16;12.90;99.90
9509;DHT22;4792;50.088;8.122;2022-10-22T07:03:45;12.80;99.90
9509;DHT22;4792;50.088;8.122;2022-10-22T07:06:13;12.90;99.90
9509;DHT22;4792;50.088;8.122;2022-10-22T07:08:42;12.80;99.90
9509;DHT22;4792;50.088;8.122;2022-10-22T07:11:12;12.90;99.90
9509;DHT22;4792;50.088;8.122;2022-10-22T07:13:43;13.00;99.90
9509;DHT22;4792;50.088;8.122;2022-10-22T07:16:11;12.90;99.90
9509;DHT22;4792;50.088;8.122;2022-10-22T07:18:41;13.00;99.90
9509;DHT22;4792;50.088;8.122;2022-10-22T07:21:10;13.00;99.90
9509;DHT22;4792;50.088;8.122;2022-10-22T07:23:38;13.10;99.90
9509;DHT22;4792;50.088;8.122;2022-10-22T07:26:07;13.10;99.90
9509;DHT22;4792;50.088;8.122;2022-10-22T07:28:36;13.10;99.90
9509;DHT22;4792;50.088;8.122;2022-10-22T07:31:08;13.10;99.90
9509;DHT22;4792;50.088;8.122;2022-10-22T07:33:37;13.10;99.90
9509;DHT22;4792;50.088;8.122;2022-10-22T07:36:06;13.20;99.90
9509;DHT22;4792;50.088;8.122;2022-10-22T07:38:35;13.30;99.90
9509;DHT22;4792;50.088;8.122;2022-10-22T07:41:03;13.40;99.90
9509;DHT22;4792;50.088;8.122;2022-10-22T07:43:32;13.50;99.90
9509;DHT22;4792;50.088;8.122;2022-10-22T07:46:00;13.60;99.90
9509;DHT22;4792;50.088;8.122;2022-10-22T07:48:30;13.50;99.90
9509;DHT22;4792;50.088;8.122;2022-10-22T07:50:58;13.50;99.90
9509;DHT22;4792;50.088;8.122;2022-10-22T07:53:26;13.70;99.90
9509;DHT22;4792;50.088;8.122;2022-10-22T07:55:54;13.90;99.90
9509;DHT22;4792;50.088;8.122;2022-10-22T07:58:22;14.00;99.90
9509;DHT22;4792;50.088;8.122;2022-10-22T08:00:54;13.90;99.90
9509;DHT22;4792;50.088;8.122;2022-10-22T08:03:22;13.80;99.90
9509;DHT22;4792;50.088;8.122;2022-10-22T08:05:53;13.70;99.90
9509;DHT22;4792;50.088;8.122;2022-10-22T08:08:21;13.80;99.90
9509;DHT22;4792;50.088;8.122;2022-10-22T08:10:56;13.90;99.90
9509;DHT22;4792;50.088;8.122;2022-10-22T08:13:26;14.00;99.90
9509;DHT22;4792;50.088;8.122;2022-10-22T08:15:56;14.20;99.90
9509;DHT22;4792;50.088;8.122;2022-10-22T08:18:24;14.30;99.90
9509;DHT22;4792;50.088;8.122;2022-10-22T08:20:54;14.40;99.90
9509;DHT22;4792;50.088;8.122;2022-10-22T08:23:23;14.40;99.90
9509;DHT22;4792;50.088;8.122;2022-10-22T08:25:54;14.40;99.90
9509;DHT22;4792;50.088;8.122;2022-10-22T08:28:22;14.30;99.90
9509;DHT22;4792;50.088;8.122;2022-10-22T08:30:50;14.40;99.90
9509;DHT22;4792;50.088;8.122;2022-10-22T08:33:18;14.50;99.90
9509;DHT22;4792;50.088;8.122;2022-10-22T08:35:47;14.60;99.90
9509;DHT22;4792;50.088;8.122;2022-10-22T08:38:18;14.50;99.90
9509;DHT22;4792;50.088;8.122;2022-10-22T08:40:48;14.30;99.90
9509;DHT22;4792;50.088;8.122;2022-10-22T08:43:45;14.30;99.90
9509;DHT22;4792;50.088;8.122;2022-10-22T08:46:38;14.40;99.90
9509;DHT22;4792;50.088;8.122;2022-10-22T08:49:13;14.60;99.90
9509;DHT22;4792;50.088;8.122;2022-10-22T08:51:43;14.50;99.90
9509;DHT22;4792;50.088;8.122;2022-10-22T08:54:25;14.70;99.90
9509;DHT22;4792;50.088;8.122;2022-10-22T08:57:10;14.90;99.90
9509;DHT22;4792;50.088;8.122;2022-10-22T08:59:45;15.10;99.90
9509;DHT22;4792;50.088;8.122;2022-10-22T09:02:24;15.40;99.90
9509;DHT22;4792;50.088;8.122;2022-10-22T09:05:01;15.60;99.90
9509;DHT22;4792;50.088;8.122;2022-10-22T09:07:39;15.60;99.90
9509;DHT22;4792;50.088;8.122;2022-10-22T09:10:11;15.50;99.90
9509;DHT22;4792;50.088;8.122;2022-10-22T09:12:39;15.70;99.90
9509;DHT22;4792;50.088;8.122;2022-10-22T09:15:12;15.80;99.90
9509;DHT22;4792;50.088;8.122;2022-10-22T09:17:53;16.00;99.90
9509;DHT22;4792;50.088;8.122;2022-10-22T09:20:30;16.20;99.90
9509;DHT22;4792;50.088;8.122;2022-10-22T09:23:16;16.70;99.90
9509;DHT22;4792;50.088;8.122;2022-10-22T09:25:48;17.00;99.90
9509;DHT22;4792;50.088;8.122;2022-10-22T09:28:17;17.40;99.90
9509;DHT22;4792;50.088;8.122;2022-10-22T09:30:45;17.10;99.90
9509;DHT22;4792;50.088;8.122;2022-10-22T09:33:22;16.80;99.90
9509;DHT22;4792;50.088;8.122;2022-10-22T09:35:52;16.80;99.90
9509;DHT22;4792;50.088;8.122;2022-10-22T09:38:24;16.70;99.90
9509;DHT22;4792;50.088;8.122;2022-10-22T09:40:56;16.80;99.90
9509;DHT22;4792;50.088;8.122;2022-10-22T09:43:25;16.90;99.90
9509;DHT22;4792;50.088;8.122;2022-10-22T09:45:58;16.70;99.90
9509;DHT22;4792;50.088;8.122;2022-10-22T09:48:32;16.80;99.90
9509;DHT22;4792;50.088;8.122;2022-10-22T09:51:06;16.90;99.90
9509;DHT22;4792;50.088;8.122;2022-10-22T09:53:41;17.20;99.90
9509;DHT22;4792;50.088;8.122;2022-10-22T09:56:20;16.80;99.90
9509;DHT22;4792;50.088;8.122;2022-10-22T09:58:50;16.80;99.90
9509;DHT22;4792;50.088;8.122;2022-10-22T10:01:22;17.00;99.90
9509;DHT22;4792;50.088;8.122;2022-10-22T10:03:51;17.20;99.90
9509;DHT22;4792;50.088;8.122;2022-10-22T10:06:21;17.30;99.90
9509;DHT22;4792;50.088;8.122;2022-10-22T10:08:50;17.50;99.90
9509;DHT22;4792;50.088;8.122;2022-10-22T10:11:25;17.50;99.90
9509;DHT22;4792;50.088;8.122;2022-10-22T10:14:06;17.70;99.90
9509;DHT22;4792;50.088;8.122;2022-10-22T10:16:42;17.80;99.90
9509;DHT22;4792;50.088;8.122;2022-10-22T10:19:29;17.80;99.90
9509;DHT22;4792;50.088;8.122;2022-10-22T10:22:17;17.80;99.90
9509;DHT22;4792;50.088;8.122;2022-10-22T10:25:00;17.70;99.90
9509;DHT22;4792;50.088;8.122;2022-10-22T10:27:36;18.00;99.90
9509;DHT22;4792;50.088;8.122;2022-10-22T10:30:10;17.90;99.90
9509;DHT22;4792;50.088;8.122;2022-10-22T10:35:50;18.50;99.90
9509;DHT22;4792;50.088;8.122;2022-10-22T10:38:31;18.50;99.90
9509;DHT22;4792;50.088;8.122;2022-10-22T10:41:12;17.70;99.90
9509;DHT22;4792;50.088;8.122;2022-10-22T10:43:58;17.60;99.90
9509;DHT22;4792;50.088;8.122;2022-10-22T10:46:34;17.20;99.90
9509;DHT22;4792;50.088;8.122;2022-10-22T10:49:09;17.20;99.90
9509;DHT22;4792;50.088;8.122;2022-10-22T10:51:44;17.20;99.90
9509;DHT22;4792;50.088;8.122;2022-10-22T10:54:20;17.30;99.90
9509;DHT22;4792;50.088;8.122;2022-10-22T10:56:55;17.10;99.90
9509;DHT22;4792;50.088;8.122;2022-10-22T10:59:42;16.90;99.90
9509;DHT22;4792;50.088;8.122;2022-10-22T11:02:31;17.00;99.90
9509;DHT22;4792;50.088;8.122;2022-10-22T11:05:25;17.00;99.90
9509;DHT22;4792;50.088;8.122;2022-10-22T11:07:58;16.90;99.90
9509;DHT22;4792;50.088;8.122;2022-10-22T11:10:30;16.60;99.90
9509;DHT22;4792;50.088;8.122;2022-10-22T11:13:05;16.60;99.90
9509;DHT22;4792;50.088;8.122;2022-10-22T11:15:39;16.60;99.90
9509;DHT22;4792;50.088;8.122;2022-10-22T11:18:14;16.60;99.90
9509;DHT22;4792;50.088;8.122;2022-10-22T11:20:51;16.60;99.90
9509;DHT22;4792;50.088;8.122;2022-10-22T11:23:24;16.60;99.90
9509;DHT22;4792;50.088;8.122;2022-10-22T11:25:54;16.50;99.90
9509;DHT22;4792;50.088;8.122;2022-10-22T11:28:25;16.60;99.90
9509;DHT22;4792;50.088;8.122;2022-10-22T11:30:59;16.70;99.90
9509;DHT22;4792;50.088;8.122;2022-10-22T11:33:35;16.80;99.90
9509;DHT22;4792;50.088;8.122;2022-10-22T11:36:06;17.10;99.90
9509;DHT22;4792;50.088;8.122;2022-10-22T11:38:35;17.20;99.90
9509;DHT22;4792;50.088;8.122;2022-10-22T11:41:09;17.30;99.90
9509;DHT22;4792;50.088;8.122;2022-10-22T11:43:55;17.30;99.90
9509;DHT22;4792;50.088;8.122;2022-10-22T11:46:30;17.20;99.90
9509;DHT22;4792;50.088;8.122;2022-10-22T11:49:03;17.20;99.90
9509;DHT22;4792;50.088;8.122;2022-10-22T11:51:33;17.30;99.90
9509;DHT22;4792;50.088;8.122;2022-10-22T11:54:23;17.70;99.90
9509;DHT22;4792;50.088;8.122;2022-10-22T11:56:58;17.70;99.90
9509;DHT22;4792;50.088;8.122;2022-10-22T11:59:46;18.00;99.90
9509;DHT22;4792;50.088;8.122;2022-10-22T12:02:30;18.10;99.90
9509;DHT22;4792;50.088;8.122;2022-10-22T12:08:30;18.50;99.90
9509;DHT22;4792;50.088;8.122;2022-10-22T12:11:04;18.60;99.90
9509;DHT22;4792;50.088;8.122;2022-10-22T12:16:39;19.60;99.90
9509;DHT22;4792;50.088;8.122;2022-10-22T12:19:29;19.50;99.90
9509;DHT22;4792;50.088;8.122;2022-10-22T12:21:59;19.70;99.90
9509;DHT22;4792;50.088;8.122;2022-10-22T12:24:31;19.60;99.90
9509;DHT22;4792;50.088;8.122;2022-10-22T12:27:01;19.40;99.90
9509;DHT22;4792;50.088;8.122;2022-10-22T12:29:32;19.80;99.90
9509;DHT22;4792;50.088;8.122;2022-10-22T12:32:02;19.90;99.90
9509;DHT22;4792;50.088;8.122;2022-10-22T12:34:32;19.80;99.90
9509;DHT22;4792;50.088;8.122;2022-10-22T12:37:03;19.90;99.90
9509;DHT22;4792;50.088;8.122;2022-10-22T12:39:34;20.10;99.90
9509;DHT22;4792;50.088;8.122;2022-10-22T12:42:04;20.70;99.90
9509;DHT22;4792;50.088;8.122;2022-10-22T12:44:32;20.40;99.90
9509;DHT22;4792;50.088;8.122;2022-10-22T12:47:00;19.70;99.90
9509;DHT22;4792;50.088;8.122;2022-10-22T12:49:35;19.30;99.90
9509;DHT22;4792;50.088;8.122;2022-10-22T12:52:07;19.30;99.90
9509;DHT22;4792;50.088;8.122;2022-10-22T12:54:40;19.50;99.90
9509;DHT22;4792;50.088;8.122;2022-10-22T12:57:10;19.30;99.90
9509;DHT22;4792;50.088;8.122;2022-10-22T12:59:42;19.00;99.90
9509;DHT22;4792;50.088;8.122;2022-10-22T13:02:18;18.80;99.90
9509;DHT22;4792;50.088;8.122;2022-10-22T13:05:21;18.80;99.90
9509;DHT22;4792;50.088;8.122;2022-10-22T13:07:52;18.70;99.90
9509;DHT22;4792;50.088;8.122;2022-10-22T13:10:24;19.10;99.90
9509;DHT22;4792;50.088;8.122;2022-10-22T13:12:55;19.70;99.90
9509;DHT22;4792;50.088;8.122;2022-10-22T13:15:36;19.90;99.90
9509;DHT22;4792;50.088;8.122;2022-10-22T13:18:14;20.00;99.90
9509;DHT22;4792;50.088;8.122;2022-10-22T13:20:52;20.20;99.90
9509;DHT22;4792;50.088;8.122;2022-10-22T13:23:21;19.70;99.90
9509;DHT22;4792;50.088;8.122;2022-10-22T13:25:57;19.80;99.90
9509;DHT22;4792;50.088;8.122;2022-10-22T13:28:26;20.10;99.90
9509;DHT22;4792;50.088;8.122;2022-10-22T13:30:57;20.30;99.90
9509;DHT22;4792;50.088;8.122;2022-10-22T13:33:29;20.30;99.90
9509;DHT22;4792;50.088;8.122;2022-10-22T13:36:00;19.60;99.90
9509;DHT22;4792;50.088;8.122;2022-10-22T13:38:29;19.30;99.90
9509;DHT22;4792;50.088;8.122;2022-10-22T13:40:57;18.90;99.90
9509;DHT22;4792;50.088;8.122;2022-10-22T13:43:26;18.70;99.90
9509;DHT22;4792;50.088;8.122;2022-10-22T13:45:57;18.70;99.90
9509;DHT22;4792;50.088;8.122;2022-10-22T13:48:27;18.80;99.90
9509;DHT22;4792;50.088;8.122;2022-10-22T13:50:56;19.60;99.90
9509;DHT22;4792;50.088;8.122;2022-10-22T13:53:27;20.20;99.90
9509;DHT22;4792;50.088;8.122;2022-10-22T13:55:56;20.70;99.90
9509;DHT22;4792;50.088;8.122;2022-10-22T13:58:24;20.50;99.90
9509;DHT22;4792;50.088;8.122;2022-10-22T14:00:54;21.00;99.90
9509;DHT22;4792;50.088;8.122;2022-10-22T14:03:25;21.60;99.90
9509;DHT22;4792;50.088;8.122;2022-10-22T14:05:55;21.70;99.90
9509;DHT22;4792;50.088;8.122;2022-10-22T14:08:26;21.60;99.90
9509;DHT22;4792;50.088;8.122;2022-10-22T14:10:55;21.90;99.90
9509;DHT22;4792;50.088;8.122;2022-10-22T14:13:23;22.10;99.90
9509;DHT22;4792;50.088;8.122;2022-10-22T14:15:52;21.70;99.90
9509;DHT22;4792;50.088;8.122;2022-10-22T14:18:22;21.70;99.90
9509;DHT22;4792;50.088;8.122;2022-10-22T14:20:55;21.50;99.90
9509;DHT22;4792;50.088;8.122;2022-10-22T14:23:27;21.80;99.90
9509;DHT22;4792;50.088;8.122;2022-10-22T14:25:56;21.70;99.90
9509;DHT22;4792;50.088;8.122;2022-10-22T14:28:25;21.80;99.90
9509;DHT22;4792;50.088;8.122;2022-10-22T14:30:53;21.70;99.90
9509;DHT22;4792;50.088;8.122;2022-10-22T14:33:24;21.40;99.90
9509;DHT22;4792;50.088;8.122;2022-10-22T14:35:57;21.10;99.90
9509;DHT22;4792;50.088;8.122;2022-10-22T14:38:27;21.80;99.90
9509;DHT22;4792;50.088;8.122;2022-10-22T14:40:56;22.10;99.90
9509;DHT22;4792;50.088;8.122;2022-10-22T14:43:28;22.20;99.90
9509;DHT22;4792;50.088;8.122;2022-10-22T14:45:57;22.00;99.90
9509;DHT22;4792;50.088;8.122;2022-10-22T14:48:25;22.20;99.90
9509;DHT22;4792;50.088;8.122;2022-10-22T14:50:53;22.30;99.90
9509;DHT22;4792;50.088;8.122;2022-10-22T14:53:21;22.60;99.90
9509;DHT22;4792;50.088;8.122;2022-10-22T14:55:51;22.60;99.90
9509;DHT22;4792;50.088;8.122;2022-10-22T14:58:21;22.30;99.90
9509;DHT22;4792;50.088;8.122;2022-10-22T15:00:49;22.40;99.90
9509;DHT22;4792;50.088;8.122;2022-10-22T15:03:17;21.60;99.90
9509;DHT22;4792;50.088;8.122;2022-10-22T15:05:45;20.80;99.90
9509;DHT22;4792;50.088;8.122;2022-10-22T15:08:14;20.40;99.90
9509;DHT22;4792;50.088;8.122;2022-10-22T15:10:42;20.20;99.90
9509;DHT22;4792;50.088;8.122;2022-10-22T15:13:11;20.00;99.90
9509;DHT22;4792;50.088;8.122;2022-10-22T15:15:40;20.10;99.90
9509;DHT22;4792;50.088;8.122;2022-10-22T15:18:08;20.30;99.90
9509;DHT22;4792;50.088;8.122;2022-10-22T15:20:36;20.40;99.90
9509;DHT22;4792;50.088;8.122;2022-10-22T15:23:04;20.80;99.90
9509;DHT22;4792;50.088;8.122;2022-10-22T15:25:32;21.10;99.90
9509;DHT22;4792;50.088;8.122;2022-10-22T15:28:00;21.20;99.90
9509;DHT22;4792;50.088;8.122;2022-10-22T15:30:37;21.80;99.90
9509;DHT22;4792;50.088;8.122;2022-10-22T15:33:05;22.20;99.90
9509;DHT22;4792;50.088;8.122;2022-10-22T15:35:33;22.50;99.90
9509;DHT22;4792;50.088;8.122;2022-10-22T15:38:01;22.70;99.90
9509;DHT22;4792;50.088;8.122;2022-10-22T15:40:32;22.70;99.90
9509;DHT22;4792;50.088;8.122;2022-10-22T15:43:00;22.90;99.90
9509;DHT22;4792;50.088;8.122;2022-10-22T15:45:28;22.90;99.90
9509;DHT22;4792;50.088;8.122;2022-10-22T15:47:58;22.70;99.90
9509;DHT22;4792;50.088;8.122;2022-10-22T15:50:26;22.40;99.90
9509;DHT22;4792;50.088;8.122;2022-10-22T15:52:54;22.10;99.90
9509;DHT22;4792;50.088;8.122;2022-10-22T15:55:23;21.70;99.90
9509;DHT22;4792;50.088;8.122;2022-10-22T15:57:53;21.40;99.90
9509;DHT22;4792;50.088;8.122;2022-10-22T16:00:26;21.00;99.90
9509;DHT22;4792;50.088;8.122;2022-10-22T16:02:54;20.70;99.90
9509;DHT22;4792;50.088;8.122;2022-10-22T16:05:26;20.40;99.90
9509;DHT22;4792;50.088;8.122;2022-10-22T16:07:54;20.00;99.90
9509;DHT22;4792;50.088;8.122;2022-10-22T16:10:22;19.70;99.90
9509;DHT22;4792;50.088;8.122;2022-10-22T16:12:51;19.40;99.90
9509;DHT22;4792;50.088;8.122;2022-10-22T16:15:20;19.20;99.90
9509;DHT22;4792;50.088;8.122;2022-10-22T16:17:50;18.90;99.90
9509;DHT22;4792;50.088;8.122;2022-10-22T16:20:18;18.60;99.90
9509;DHT22;4792;50.088;8.122;2022-10-22T16:22:49;18.40;99.90
9509;DHT22;4792;50.088;8.122;2022-10-22T16:25:17;18.20;99.90
9509;DHT22;4792;50.088;8.122;2022-10-22T16:27:48;18.00;99.90
9509;DHT22;4792;50.088;8.122;2022-10-22T16:30:16;17.80;99.90
9509;DHT22;4792;50.088;8.122;2022-10-22T16:32:44;17.70;99.90
9509;DHT22;4792;50.088;8.122;2022-10-22T16:35:13;17.60;99.90
9509;DHT22;4792;50.088;8.122;2022-10-22T16:37:41;17.50;99.90
9509;DHT22;4792;50.088;8.122;2022-10-22T16:40:11;17.40;99.90
9509;DHT22;4792;50.088;8.122;2022-10-22T16:42:40;17.20;99.90